createdAt,value
2023-03-25T00:06:50.753Z,10.69
2023-03-25T00:16:52.431Z,10.71
2023-03-25T00:26:54.174Z,10.74
2023-03-25T00:36:56.140Z,10.76
2023-03-25T00:46:55.826Z,10.77
2023-03-25T00:56:55.874Z,10.78
2023-03-25T01:06:55.846Z,10.82
2023-03-25T01:16:55.937Z,10.87
2023-03-25T01:26:55.888Z,10.90
2023-03-25T01:36:56.057Z,10.92
2023-03-25T01:46:55.863Z,10.93
2023-03-25T01:56:56.428Z,10.95
2023-03-25T02:06:57.994Z,10.94
2023-03-25T02:16:58.127Z,10.91
2023-03-25T02:26:59.382Z,10.89
2023-03-25T02:37:01.140Z,10.87
2023-03-25T02:47:00.988Z,10.85
2023-03-25T02:57:01.386Z,10.83
2023-03-25T03:07:01.992Z,10.81
2023-03-25T03:17:03.068Z,10.78
2023-03-25T03:27:03.067Z,10.75
2023-03-25T03:37:03.093Z,10.72
2023-03-25T03:47:03.061Z,10.71
2023-03-25T03:57:03.224Z,10.69
2023-03-25T04:07:04.064Z,10.61
2023-03-25T04:17:06.162Z,10.41
2023-03-25T04:27:06.154Z,10.28
2023-03-25T04:37:06.185Z,10.26
2023-03-25T04:47:06.138Z,10.30
2023-03-25T04:57:08.237Z,10.36
2023-03-25T05:07:08.293Z,10.43
2023-03-25T05:17:08.199Z,10.48
2023-03-25T05:27:08.214Z,10.46
2023-03-25T05:37:08.259Z,10.38
2023-03-25T05:47:08.182Z,10.34
2023-03-25T05:57:08.319Z,10.31
2023-03-25T06:07:11.085Z,10.33
2023-03-25T06:17:11.209Z,10.42
2023-03-25T06:27:11.759Z,10.53
2023-03-25T06:37:14.499Z,10.61
2023-03-25T06:47:16.146Z,10.53
2023-03-25T06:57:16.721Z,10.42
2023-03-25T07:07:17.293Z,10.33
2023-03-25T07:17:17.390Z,10.20
2023-03-25T07:27:19.287Z,10.34
2023-03-25T07:37:19.310Z,10.95
2023-03-25T07:47:19.350Z,11.56
2023-03-25T07:57:19.494Z,11.88
2023-03-25T08:07:19.469Z,12.07
2023-03-25T08:17:19.370Z,12.11
2023-03-25T08:27:19.437Z,12.28
2023-03-25T08:37:19.493Z,12.80
2023-03-25T08:47:19.558Z,13.27
2023-03-25T08:57:19.428Z,13.36
2023-03-25T09:07:19.501Z,13.57
2023-03-25T09:17:19.845Z,14.41
2023-03-25T09:27:20.618Z,15.23
2023-03-25T09:37:20.771Z,15.25
2023-03-25T09:47:20.886Z,15.35
2023-03-25T09:57:21.737Z,15.48
2023-03-25T10:07:21.519Z,15.16
2023-03-25T10:17:22.119Z,14.63
2023-03-25T10:27:23.621Z,14.14
2023-03-25T10:37:23.706Z,14.13
2023-03-25T10:47:23.689Z,14.41
2023-03-25T10:57:23.674Z,14.43
2023-03-25T11:07:24.129Z,14.49
2023-03-25T11:17:26.252Z,14.79
2023-03-25T11:27:27.957Z,15.45
2023-03-25T11:37:27.909Z,16.34
2023-03-25T11:47:27.755Z,16.74
2023-03-25T11:57:28.794Z,17.01
2023-03-25T12:07:29.770Z,16.70
2023-03-25T12:17:29.765Z,16.11
2023-03-25T12:27:30.660Z,15.59
2023-03-25T12:37:31.084Z,15.60
2023-03-25T12:47:31.716Z,16.02
2023-03-25T12:57:31.764Z,16.39
2023-03-25T13:07:34.054Z,16.84
2023-03-25T13:17:33.905Z,17.19
2023-03-25T13:27:33.840Z,16.93
2023-03-25T13:37:33.946Z,15.97
2023-03-25T13:47:33.879Z,14.64
2023-03-25T13:57:33.835Z,13.68
2023-03-25T14:07:33.955Z,13.65
2023-03-25T14:17:35.281Z,13.80
2023-03-25T14:27:36.980Z,13.80
2023-03-25T14:37:37.533Z,13.99
2023-03-25T14:47:37.916Z,14.55
2023-03-25T14:57:37.991Z,14.87
2023-03-25T15:07:38.541Z,14.23
2023-03-25T15:17:38.965Z,13.47
2023-03-25T15:27:38.926Z,12.83
2023-03-25T15:37:46.096Z,12.53
2023-03-25T15:47:43.037Z,12.52
2023-03-25T15:57:43.013Z,12.58
2023-03-25T16:07:43.127Z,12.65
2023-03-25T16:17:43.121Z,12.74
2023-03-25T16:27:43.922Z,13.11
2023-03-25T16:37:44.132Z,13.31
2023-03-25T16:47:45.633Z,13.10
2023-03-25T16:57:46.094Z,12.73
2023-03-25T17:07:47.713Z,12.25
2023-03-25T17:17:50.277Z,11.84
2023-03-25T17:27:50.263Z,11.55
2023-03-25T17:37:50.252Z,11.26
2023-03-25T17:47:50.867Z,10.99
2023-03-25T17:57:51.212Z,10.64
2023-03-25T18:07:51.389Z,10.32
2023-03-25T18:17:52.657Z,10.14
2023-03-25T18:27:53.306Z,10.09
2023-03-25T18:37:53.330Z,10.12
2023-03-25T18:47:53.325Z,10.15
2023-03-25T18:57:53.285Z,10.13
2023-03-25T19:07:53.300Z,10.04
2023-03-25T19:17:53.328Z,9.95
2023-03-25T19:27:53.234Z,9.88
2023-03-25T19:37:55.208Z,9.73
2023-03-25T19:47:55.272Z,9.49
2023-03-25T19:57:55.308Z,9.24
2023-03-25T20:07:55.731Z,9.09
2023-03-25T20:17:56.624Z,9.18
2023-03-25T20:27:57.431Z,9.42
2023-03-25T20:37:57.864Z,9.67
2023-03-25T20:47:58.590Z,9.96
2023-03-25T20:57:58.419Z,10.21
2023-03-25T21:07:58.414Z,10.41
2023-03-25T21:17:58.432Z,10.56
2023-03-25T21:27:58.524Z,10.67
2023-03-25T21:38:00.489Z,10.70
2023-03-25T21:48:02.082Z,10.66
2023-03-25T21:58:02.412Z,10.65
2023-03-25T22:08:02.479Z,10.69
2023-03-25T22:18:02.616Z,10.76
2023-03-25T22:28:02.514Z,10.81
2023-03-25T22:38:02.993Z,10.75
2023-03-25T22:48:03.592Z,10.56
2023-03-25T22:58:03.792Z,10.34
2023-03-25T23:08:03.650Z,10.16
2023-03-25T23:18:03.859Z,10.03
2023-03-25T23:28:05.335Z,9.96
2023-03-25T23:38:05.565Z,9.93
2023-03-25T23:48:06.000Z,9.93
2023-03-25T23:58:06.677Z,9.93
